createdAt,value
2022-12-28T00:02:20.040Z,78.72
2022-12-28T00:07:22.969Z,79.17
2022-12-28T00:12:19.977Z,78.82
2022-12-28T00:17:19.932Z,78.37
2022-12-28T00:22:19.832Z,78.37
2022-12-28T00:27:20.149Z,77.40
2022-12-28T00:32:19.736Z,76.98
2022-12-28T00:37:19.697Z,77.23
2022-12-28T00:42:19.608Z,77.58
2022-12-28T00:47:20.161Z,77.02
2022-12-28T00:52:19.427Z,77.89
2022-12-28T00:57:19.467Z,78.44
2022-12-28T01:02:19.350Z,78.58
2022-12-28T01:07:22.303Z,77.99
2022-12-28T01:12:19.172Z,79.24
2022-12-28T01:17:19.121Z,79.27
2022-12-28T01:22:18.993Z,78.47
2022-12-28T01:27:19.036Z,77.64
2022-12-28T01:32:18.864Z,78.23
2022-12-28T01:37:18.831Z,77.61
2022-12-28T01:42:18.868Z,77.78
2022-12-28T01:47:18.755Z,76.91
2022-12-28T01:52:18.662Z,76.46
2022-12-28T01:57:18.763Z,77.22
2022-12-28T02:02:19.648Z,76.46
2022-12-28T02:07:21.566Z,76.36
2022-12-28T02:12:18.328Z,77.88
2022-12-28T02:17:18.475Z,77.47
2022-12-28T02:22:18.321Z,77.67
2022-12-28T02:27:25.433Z,76.36
2022-12-28T02:32:25.761Z,75.53
2022-12-28T02:37:17.942Z,76.26
2022-12-28T02:42:18.016Z,76.61
2022-12-28T02:47:17.958Z,76.26
2022-12-28T02:52:18.055Z,76.26
2022-12-28T02:57:17.792Z,76.91
2022-12-28T03:02:17.888Z,76.26
2022-12-28T03:07:20.690Z,77.01
2022-12-28T03:12:17.629Z,78.50
2022-12-28T03:17:17.589Z,76.71
2022-12-28T03:22:17.475Z,77.29
2022-12-28T03:27:20.031Z,76.36
2022-12-28T03:32:17.225Z,75.60
2022-12-28T03:37:17.336Z,76.12
2022-12-28T03:42:17.152Z,75.05
2022-12-28T03:47:18.768Z,74.81
2022-12-28T03:52:17.034Z,73.33
2022-12-28T03:57:17.053Z,72.81
2022-12-28T04:02:25.141Z,71.16
2022-12-28T04:07:27.726Z,71.06
2022-12-28T04:12:16.909Z,73.98
2022-12-28T04:17:24.177Z,72.19
2022-12-28T04:22:16.695Z,71.99
2022-12-28T04:27:16.704Z,72.67
2022-12-28T04:32:16.489Z,72.26
2022-12-28T04:37:16.626Z,71.47
2022-12-28T04:42:16.594Z,71.37
2022-12-28T04:47:16.442Z,70.96
2022-12-28T04:52:16.341Z,72.33
2022-12-28T04:57:16.362Z,70.20
2022-12-28T05:02:16.355Z,72.88
2022-12-28T05:07:19.230Z,72.81
2022-12-28T05:12:16.070Z,74.02
2022-12-28T05:17:15.982Z,72.33
2022-12-28T05:22:16.027Z,72.54
2022-12-28T05:27:15.872Z,73.16
2022-12-28T05:32:15.718Z,73.47
2022-12-28T05:37:21.763Z,74.02
2022-12-28T05:42:16.691Z,73.88
2022-12-28T05:47:17.396Z,73.16
2022-12-28T05:52:15.517Z,72.81
2022-12-28T05:57:15.372Z,72.30
2022-12-28T06:02:19.107Z,73.43
2022-12-28T06:07:19.601Z,72.92
2022-12-28T06:12:15.274Z,74.29
2022-12-28T06:17:15.185Z,73.43
2022-12-28T06:22:15.207Z,74.12
2022-12-28T06:27:15.142Z,72.51
2022-12-28T06:32:14.981Z,72.20
2022-12-28T06:37:15.215Z,72.33
2022-12-28T06:42:14.989Z,73.57
2022-12-28T06:47:15.056Z,72.20
2022-12-28T06:52:15.667Z,73.19
2022-12-28T06:57:22.528Z,73.81
2022-12-28T07:02:14.885Z,73.81
2022-12-28T07:07:18.042Z,74.98
2022-12-28T07:12:14.520Z,74.57
2022-12-28T07:17:14.560Z,74.53
2022-12-28T07:22:14.334Z,72.61
2022-12-28T07:27:14.335Z,73.68
2022-12-28T07:32:14.289Z,73.47
2022-12-28T07:37:14.198Z,72.20
2022-12-28T07:42:14.048Z,72.81
2022-12-28T07:47:14.079Z,72.68
2022-12-28T07:52:13.959Z,71.96
2022-12-28T07:57:13.947Z,72.34
2022-12-28T08:02:13.892Z,71.92
2022-12-28T08:07:16.894Z,70.83
2022-12-28T08:12:13.815Z,72.96
2022-12-28T08:17:20.701Z,70.83
2022-12-28T08:22:14.853Z,71.14
2022-12-28T08:27:13.619Z,70.79
2022-12-28T08:32:13.457Z,70.66
2022-12-28T08:37:13.430Z,70.66
2022-12-28T08:42:13.376Z,70.22
2022-12-28T08:47:13.250Z,69.02
2022-12-28T08:52:13.193Z,69.02
2022-12-28T08:57:13.339Z,68.55
2022-12-28T09:02:13.353Z,68.68
2022-12-28T09:07:16.361Z,69.33
2022-12-28T09:12:13.124Z,70.60
2022-12-28T09:17:12.889Z,68.55
2022-12-28T09:22:12.800Z,67.83
2022-12-28T09:27:12.848Z,71.11
2022-12-28T09:32:12.800Z,72.27
2022-12-28T09:37:12.609Z,72.17
2022-12-28T09:42:12.535Z,70.91
2022-12-28T09:47:20.328Z,70.26
2022-12-28T09:52:21.660Z,69.85
2022-12-28T09:58:43.951Z,68.83
2022-12-28T10:04:52.415Z,68.11
2022-12-28T10:09:52.248Z,69.20
2022-12-28T10:14:52.250Z,67.33
2022-12-28T10:19:52.225Z,68.08
2022-12-28T10:24:52.164Z,68.05
2022-12-28T10:29:52.084Z,66.58
2022-12-28T10:34:51.958Z,65.43
2022-12-28T10:39:52.016Z,66.28
2022-12-28T10:44:52.800Z,65.91
2022-12-28T10:50:18.563Z,65.94
2022-12-28T10:55:08.475Z,65.30
2022-12-28T10:59:52.613Z,66.48
2022-12-28T11:04:51.570Z,65.66
2022-12-28T11:09:51.599Z,66.31
2022-12-28T11:14:51.456Z,65.19
2022-12-28T11:19:51.507Z,64.78
2022-12-28T11:24:51.395Z,64.58
2022-12-28T11:29:51.615Z,65.05
2022-12-28T11:34:51.382Z,65.22
2022-12-28T11:39:51.223Z,65.37
2022-12-28T11:44:51.181Z,65.47
2022-12-28T11:49:51.112Z,65.06
2022-12-28T11:54:53.959Z,65.80
2022-12-28T12:01:05.848Z,64.37
2022-12-28T12:07:27.436Z,64.68
2022-12-28T12:12:23.698Z,65.30
2022-12-28T12:17:22.522Z,64.65
2022-12-28T12:22:22.819Z,65.84
2022-12-28T12:27:22.125Z,65.33
2022-12-28T12:33:40.420Z,64.68
2022-12-28T12:38:40.334Z,65.84
2022-12-28T12:43:40.211Z,65.19
2022-12-28T12:50:31.105Z,64.81
2022-12-28T12:55:30.790Z,63.45
2022-12-28T13:00:30.800Z,63.12
2022-12-28T13:05:30.661Z,63.96
2022-12-28T13:10:30.670Z,63.53
2022-12-28T13:15:30.693Z,64.45
2022-12-28T13:20:30.414Z,64.24
2022-12-28T13:25:30.459Z,63.83
2022-12-28T13:30:30.401Z,63.93
2022-12-28T13:35:30.228Z,64.14
2022-12-28T13:40:33.325Z,63.81
2022-12-28T13:47:29.144Z,64.14
2022-12-28T13:53:48.469Z,63.60
2022-12-28T14:01:30.464Z,63.83
2022-12-28T14:07:47.987Z,63.09
2022-12-28T14:12:47.552Z,64.92
2022-12-28T14:17:47.599Z,64.27
2022-12-28T14:22:47.748Z,65.87
2022-12-28T14:27:47.335Z,65.87
2022-12-28T14:32:47.358Z,65.87
2022-12-28T14:37:47.202Z,65.77
2022-12-28T14:42:47.142Z,65.84
2022-12-28T14:47:47.261Z,65.43
2022-12-28T14:52:47.198Z,65.73
2022-12-28T14:57:51.544Z,68.01
2022-12-28T15:06:56.962Z,65.19
2022-12-28T15:19:56.302Z,66.45
2022-12-28T15:24:54.129Z,66.14
2022-12-28T15:30:06.050Z,65.37
2022-12-28T15:34:54.797Z,66.96
2022-12-28T15:39:53.807Z,66.01
2022-12-28T15:44:53.509Z,65.80
2022-12-28T15:49:53.500Z,66.75
2022-12-28T15:54:53.629Z,66.35
2022-12-28T15:59:55.547Z,66.75
2022-12-28T16:04:53.313Z,66.25
2022-12-28T16:09:56.325Z,66.42
2022-12-28T16:14:53.151Z,68.63
2022-12-28T16:19:53.100Z,66.01
2022-12-28T16:24:53.254Z,66.86
2022-12-28T16:31:21.906Z,65.47
2022-12-28T16:38:02.924Z,67.07
2022-12-28T16:43:02.909Z,66.83
2022-12-28T16:48:03.236Z,66.90
2022-12-28T16:53:02.470Z,68.19
2022-12-28T16:59:22.128Z,67.82
2022-12-28T17:19:30.778Z,69.24
2022-12-28T17:25:48.163Z,68.16
2022-12-28T17:30:47.988Z,69.24
2022-12-28T17:35:47.873Z,69.04
2022-12-28T17:40:47.891Z,70.23
2022-12-28T17:45:47.815Z,69.79
2022-12-28T17:50:47.892Z,69.92
2022-12-28T17:55:48.445Z,69.82
2022-12-28T18:00:47.601Z,71.69
2022-12-28T18:05:49.335Z,70.77
2022-12-28T18:17:00.452Z,70.33
2022-12-28T18:22:00.114Z,70.84
2022-12-28T18:28:21.330Z,69.04
2022-12-28T18:36:39.462Z,70.09
2022-12-28T18:41:47.776Z,69.68
2022-12-28T18:48:04.610Z,70.20
2022-12-28T18:55:32.337Z,70.87
2022-12-28T19:03:54.591Z,70.03
2022-12-28T19:08:54.379Z,69.89
2022-12-28T19:13:54.330Z,69.38
2022-12-28T19:25:23.137Z,68.52
2022-12-28T20:17:47.810Z,66.38
2022-12-28T20:26:39.351Z,66.92
2022-12-28T20:31:38.823Z,67.02
2022-12-28T20:42:03.484Z,66.17
2022-12-28T20:47:03.774Z,67.26
2022-12-28T20:55:21.196Z,66.51
2022-12-28T21:05:59.138Z,66.92
2022-12-28T21:10:59.004Z,65.15
2022-12-28T21:18:03.309Z,65.05
2022-12-28T23:14:07.215Z,63.69
2022-12-28T23:19:06.705Z,63.07
2022-12-28T23:27:59.085Z,62.98
2022-12-28T23:34:27.518Z,63.72
2022-12-28T23:41:01.216Z,63.59
2022-12-28T23:46:01.024Z,65.28
2022-12-28T23:51:00.970Z,64.33
2022-12-28T23:58:12.681Z,63.79
